Time;durP1;ratioP1;P1;durP2;ratioP2;P2;SDS_P1;SDS_P2;PMS_P1;PMS_P2;Temp;Humidity;BMP_temperature;BMP_pressure;BME280_temperature;BME280_humidity;BME280_pressure;Samples;Min_cycle;Max_cycle;Signal;HPM_P1;HPM_P2
2022/05/27 00:02:12;;;;;;;11.00;3.63;;;;;;;-149.78;100.00;50279.78;5134295;27;20427;-70
2022/05/27 00:04:38;;;;;;;12.25;3.08;;;;;;;-149.78;100.00;50268.03;5116244;27;20126;-70
2022/05/27 00:07:04;;;;;;;13.65;3.65;;;;;;;-149.78;100.00;50326.72;5113346;27;20122;-70
2022/05/27 00:09:29;;;;;;;12.18;4.43;;;;;;;-149.78;100.00;50295.44;5078592;28;20455;-70
2022/05/27 00:11:55;;;;;;;14.27;3.35;;;;;;;-149.78;100.00;50270.00;5125184;27;20035;-70
2022/05/27 00:14:21;;;;;;;12.88;2.60;;;;;;;-149.78;100.00;50281.75;5116179;27;20035;-70
2022/05/27 00:16:47;;;;;;;11.48;2.90;;;;;;;-149.78;100.00;50295.44;5116130;27;20031;-70
2022/05/27 00:19:13;;;;;;;10.07;2.83;;;;;;;-149.78;100.00;50299.34;5134326;27;20027;-70
2022/05/27 00:21:39;;;;;;;12.50;3.30;;;;;;;-149.78;100.00;50246.53;5123406;27;20039;-70
2022/05/27 00:24:05;;;;;;;12.82;2.90;;;;;;;-149.78;100.00;50271.97;5100761;27;20058;-70
2022/05/27 00:26:31;;;;;;;14.38;2.72;;;;;;;-149.78;100.00;50289.56;5134162;27;20046;-70
2022/05/27 00:28:57;;;;;;;13.35;3.38;;;;;;;-149.78;100.00;50260.22;5115819;27;20072;-70
2022/05/27 00:31:23;;;;;;;15.23;3.60;;;;;;;-149.78;100.00;50293.47;5134098;27;20358;-70
2022/05/27 00:33:48;;;;;;;15.13;2.97;;;;;;;-149.78;100.00;50271.97;5099078;27;20031;-70
2022/05/27 00:36:14;;;;;;;13.68;3.45;;;;;;;-149.78;100.00;50252.41;5134196;27;20035;-70
2022/05/27 00:38:44;;;;;;;13.30;3.35;;;;;;;-149.78;100.00;50256.31;5098075;27;20051;-70
2022/05/27 00:41:11;;;;;;;18.08;4.93;;;;;;;-149.78;100.00;50256.31;5133861;27;20023;-70
2022/05/27 00:43:39;;;;;;;22.58;4.53;;;;;;;-149.78;100.00;50240.66;5115785;28;20038;-70
2022/05/27 00:46:27;;;;;;;10.77;2.85;;;;;;;-149.78;100.00;50291.50;5133748;28;20478;-70
2022/05/27 00:48:58;;;;;;;13.30;3.20;;;;;;;-149.78;100.00;50234.81;5133919;28;20051;-70
2022/05/27 00:51:31;;;;;;;14.63;3.20;;;;;;;-149.78;100.00;50303.25;5115598;28;20039;-70
2022/05/27 00:54:09;;;;;;;12.13;3.17;;;;;;;-149.78;100.00;50287.59;5133903;28;20073;-70
2022/05/27 00:56:39;;;;;;;19.67;3.15;;;;;;;-149.78;100.00;50248.50;5133906;28;20087;-70
2022/05/27 00:59:08;;;;;;;14.82;3.25;;;;;;;-149.78;100.00;50303.25;5136525;27;20031;-70
2022/05/27 01:01:34;;;;;;;12.60;3.40;;;;;;;-149.78;100.00;50273.91;5118814;27;20043;-71
2022/05/27 01:04:01;;;;;;;12.68;3.00;;;;;;;-149.78;100.00;50268.03;5100999;27;20123;-70
2022/05/27 01:06:27;;;;;;;19.00;3.67;;;;;;;-149.78;100.00;50291.50;5118305;27;20042;-70
2022/05/27 01:08:54;;;;;;;16.52;3.85;;;;;;;-149.78;100.00;50262.19;5118066;27;20038;-70
2022/05/27 01:11:22;;;;;;;16.02;3.83;;;;;;;-149.78;100.00;50279.78;5118267;27;20130;-70
2022/05/27 01:14:26;;;;;;;15.98;3.70;;;;;;;-149.78;100.00;50256.31;5119490;27;20490;-70
2022/05/27 01:17:02;;;;;;;15.65;3.30;;;;;;;-149.78;100.00;50244.59;5137530;27;20077;-70
2022/05/27 01:20:19;;;;;;;18.45;3.65;;;;;;;-149.78;100.00;50256.31;5137721;27;20034;-70
2022/05/27 01:23:04;;;;;;;16.48;3.00;;;;;;;-149.78;100.00;50291.50;5137719;27;20031;-70
2022/05/27 01:26:07;;;;;;;10.57;3.20;;;;;;;-149.78;100.00;50252.41;5137491;27;20023;-71
2022/05/27 01:28:53;;;;;;;10.70;3.30;;;;;;;-149.78;100.00;50228.94;5137444;27;20031;-70
2022/05/27 01:31:33;;;;;;;18.63;3.40;;;;;;;-149.78;100.00;50279.78;5118976;27;20059;-71
2022/05/27 01:34:03;;;;;;;23.25;4.20;;;;;;;-149.78;100.00;50299.34;5137027;27;20058;-71
2022/05/27 01:36:57;;;;;;;16.25;4.00;;;;;;;-149.78;100.00;50295.44;5136919;27;20027;-71
2022/05/27 01:39:29;;;;;;;15.85;3.10;;;;;;;-149.78;100.00;50285.66;5118874;27;20084;-70
2022/05/27 01:42:06;;;;;;;16.55;3.13;;;;;;;-149.78;100.00;50299.34;5137393;27;20038;-70
2022/05/27 01:44:46;;;;;;;16.67;3.20;;;;;;;-149.78;100.00;50250.44;5137193;27;20479;-70
2022/05/27 01:47:21;;;;;;;14.40;2.72;;;;;;;-149.78;100.00;50240.66;5136260;27;20027;-70
2022/05/27 01:49:57;;;;;;;16.80;3.15;;;;;;;-149.78;100.00;50268.03;5132950;27;20027;-70
2022/05/27 01:52:36;;;;;;;16.95;3.13;;;;;;;-149.78;100.00;50268.03;5135817;27;20038;-71
2022/05/27 01:55:20;;;;;;;14.98;2.65;;;;;;;-149.78;100.00;50287.59;5122596;27;20051;-70
2022/05/27 01:57:57;;;;;;;18.67;3.47;;;;;;;-149.78;100.00;50285.66;5118515;27;20375;-71
2022/05/27 02:00:26;;;;;;;13.00;3.25;;;;;;;-149.78;100.00;50299.34;5136151;27;20027;-70
2022/05/27 02:02:56;;;;;;;14.90;3.53;;;;;;;-149.78;100.00;50311.06;5136641;27;20102;-70
2022/05/27 02:05:46;;;;;;;17.45;3.00;;;;;;;-149.78;100.00;50287.59;5136959;27;20114;-70
2022/05/27 02:08:18;;;;;;;14.10;3.17;;;;;;;-149.78;100.00;50275.88;5136727;27;20027;-70
2022/05/27 02:11:08;;;;;;;17.60;3.35;;;;;;;-149.78;100.00;50275.88;5117970;27;20478;-70
2022/05/27 02:13:41;;;;;;;20.45;4.10;;;;;;;-149.78;100.00;50283.69;5127921;27;20023;-70
2022/05/27 02:16:13;;;;;;;17.38;3.80;;;;;;;-149.78;100.00;50299.34;5133261;27;20055;-70
2022/05/27 02:19:01;;;;;;;9.55;2.90;;;;;;;-149.78;100.00;50283.69;5132923;27;20055;-70
2022/05/27 02:21:31;;;;;;;12.43;3.15;;;;;;;-149.78;100.00;50264.13;5135558;27;20023;-70
2022/05/27 02:24:12;;;;;;;11.43;3.15;;;;;;;-149.78;100.00;50271.97;5118161;27;20059;-70
2022/05/27 02:26:44;;;;;;;19.35;2.88;;;;;;;-149.78;100.00;50246.53;5136339;27;20386;-70
2022/05/27 02:29:13;;;;;;;20.57;3.60;;;;;;;-149.78;100.00;50291.50;5136403;27;20031;-70
2022/05/27 02:31:43;;;;;;;22.90;3.97;;;;;;;-149.78;100.00;50264.13;5117908;27;20046;-70
2022/05/27 02:37:30;;;;;;;16.77;3.42;;;;;;;-149.78;100.00;50277.81;5136179;27;20119;-70
2022/05/27 02:39:58;;;;;;;14.45;3.60;;;;;;;-149.78;100.00;50256.31;5125820;27;20051;-70
2022/05/27 02:42:42;;;;;;;15.85;3.15;;;;;;;-149.78;100.00;50291.50;5136160;27;20426;-70
2022/05/27 02:45:24;;;;;;;18.52;3.58;;;;;;;-149.78;100.00;50283.69;5136143;27;20038;-70
2022/05/27 02:48:05;;;;;;;13.18;3.03;;;;;;;-149.78;100.00;50311.06;5117737;27;20038;-70
2022/05/27 02:50:47;;;;;;;20.38;3.00;;;;;;;-149.78;100.00;50252.41;5117720;27;20332;-70
2022/05/27 02:53:28;;;;;;;14.95;3.42;;;;;;;-149.78;100.00;50287.59;5135784;27;20039;-71
2022/05/27 02:56:15;;;;;;;11.90;3.63;;;;;;;-149.78;100.00;50260.22;5135850;27;20035;-70
2022/05/27 02:58:40;;;;;;;13.70;4.57;;;;;;;-149.78;100.00;50303.25;5097019;28;20042;-70
2022/05/27 03:01:07;;;;;;;12.15;3.20;;;;;;;-149.78;100.00;50299.34;5114987;28;20031;-70
2022/05/27 03:03:33;;;;;;;21.80;4.03;;;;;;;-149.78;100.00;50256.31;5114840;28;20055;-70
2022/05/27 03:06:22;;;;;;;18.20;2.97;;;;;;;-149.78;100.00;50283.69;5114660;28;20087;-70
2022/05/27 03:09:23;;;;;;;16.95;3.00;;;;;;;-149.78;100.00;50295.44;5114678;28;20136;-70
2022/05/27 03:12:11;;;;;;;17.77;3.38;;;;;;;-149.78;100.00;50330.63;5114037;28;20077;-70
2022/05/27 03:14:55;;;;;;;13.80;2.80;;;;;;;-149.78;100.00;50289.56;5114626;28;20031;-70
2022/05/27 03:17:25;;;;;;;15.05;3.03;;;;;;;-149.78;100.00;50271.97;5115024;28;20039;-70
2022/05/27 03:20:20;;;;;;;12.15;2.67;;;;;;;-149.78;100.00;50314.97;5114371;28;20035;-70
2022/05/27 03:23:01;;;;;;;9.73;2.65;;;;;;;-149.78;100.00;50279.78;5113492;27;20069;-71
2022/05/27 03:25:41;;;;;;;15.52;2.95;;;;;;;-149.78;100.00;50311.06;5116867;27;20391;-70
2022/05/27 03:28:54;;;;;;;17.08;2.97;;;;;;;-149.78;100.00;50271.97;5116830;27;20027;-70
2022/05/27 03:31:47;;;;;;;12.50;2.47;;;;;;;-149.78;100.00;50326.72;5113111;27;20095;-70
2022/05/27 03:34:33;;;;;;;14.88;2.88;;;;;;;-149.78;100.00;50330.63;5121334;27;20043;-70
2022/05/27 03:37:14;;;;;;;11.10;2.92;;;;;;;-149.78;100.00;50340.41;5116777;27;20070;-71
2022/05/27 03:39:55;;;;;;;16.42;3.83;;;;;;;-149.78;100.00;50311.06;5127728;27;20030;-70
2022/05/27 03:42:24;;;;;;;8.73;2.58;;;;;;;-149.78;100.00;50295.44;5108322;27;20027;-70
2022/05/27 03:45:04;;;;;;;22.55;3.70;;;;;;;-149.78;100.00;50303.25;5134417;27;20039;-70
2022/05/27 03:47:30;;;;;;;11.73;2.70;;;;;;;-149.78;100.00;50334.53;5125865;27;20035;-70
2022/05/27 03:49:57;;;;;;;15.02;3.22;;;;;;;-149.78;100.00;50287.59;5134408;27;20485;-70
2022/05/27 03:52:32;;;;;;;15.80;2.88;;;;;;;-149.78;100.00;50303.25;5116236;27;20023;-71
2022/05/27 03:54:58;;;;;;;18.75;3.80;;;;;;;-149.78;100.00;50287.59;5122726;27;20562;-71
2022/05/27 03:57:24;;;;;;;11.38;2.80;;;;;;;-149.78;100.00;50303.25;5127224;27;20031;-70
2022/05/27 03:59:49;;;;;;;16.38;2.83;;;;;;;-149.78;100.00;50303.25;5116144;27;20073;-71
2022/05/27 04:02:15;;;;;;;17.05;3.50;;;;;;;-149.78;100.00;50303.25;5134500;27;20072;-71
2022/05/27 04:04:40;;;;;;;20.25;3.00;;;;;;;-149.78;100.00;50313.03;5099264;27;20066;-71
2022/05/27 04:07:06;;;;;;;16.88;3.45;;;;;;;-149.78;100.00;50322.81;5134366;27;20050;-71
2022/05/27 04:09:33;;;;;;;14.55;2.75;;;;;;;-149.78;100.00;50313.03;5115738;27;20071;-70
2022/05/27 04:11:59;;;;;;;12.93;3.15;;;;;;;-149.78;100.00;50283.69;5116167;27;20076;-70
2022/05/27 04:14:25;;;;;;;13.02;2.85;;;;;;;-149.78;100.00;50287.59;5134641;27;20035;-70
2022/05/27 04:16:51;;;;;;;13.70;2.72;;;;;;;-149.78;100.00;50303.25;5134399;27;20033;-70
2022/05/27 04:19:17;;;;;;;15.52;2.70;;;;;;;-149.78;100.00;50326.72;5115567;27;20118;-70
2022/05/27 04:21:43;;;;;;;18.58;2.63;;;;;;;-149.78;100.00;50330.63;5115771;27;20027;-70
2022/05/27 04:24:09;;;;;;;18.98;3.30;;;;;;;-149.78;100.00;50326.72;5116056;27;20027;-71
2022/05/27 04:26:36;;;;;;;21.45;3.00;;;;;;;-149.78;100.00;50299.34;5134315;27;20027;-70
2022/05/27 04:29:02;;;;;;;8.95;2.28;;;;;;;-149.78;100.00;50314.97;5134036;27;20076;-70
2022/05/27 04:31:29;;;;;;;11.68;2.53;;;;;;;-149.78;100.00;50334.53;5134013;27;20096;-71
2022/05/27 04:33:55;;;;;;;12.18;3.42;;;;;;;-149.78;100.00;50279.78;5125617;27;20474;-71
2022/05/27 04:36:21;;;;;;;23.42;3.47;;;;;;;-149.78;100.00;50301.28;5113620;28;20031;-70
2022/05/27 04:38:47;;;;;;;11.10;2.47;;;;;;;-149.78;100.00;50307.16;5113668;28;20387;-70
2022/05/27 04:41:13;;;;;;;17.13;2.83;;;;;;;-149.78;100.00;50281.75;5113215;28;20138;-70
2022/05/27 04:43:38;;;;;;;23.63;3.00;;;;;;;-149.78;100.00;50314.97;5113597;28;20134;-70
2022/05/27 04:46:04;;;;;;;11.63;2.90;;;;;;;-149.78;100.00;50305.22;5113389;28;20050;-70
2022/05/27 04:48:30;;;;;;;15.30;3.38;;;;;;;-149.78;100.00;50314.97;5126473;28;20031;-71
2022/05/27 04:50:56;;;;;;;12.43;3.10;;;;;;;-149.78;100.00;50264.13;5134126;28;20054;-70
2022/05/27 04:53:22;;;;;;;20.35;3.20;;;;;;;-149.78;100.00;50291.50;5127043;28;20478;-71
2022/05/27 04:55:48;;;;;;;14.05;2.92;;;;;;;-149.78;100.00;50271.97;5132511;28;20522;-71
2022/05/27 04:58:13;;;;;;;14.80;3.30;;;;;;;-149.78;100.00;50311.06;5097111;28;20062;-71
2022/05/27 05:00:45;;;;;;;16.83;3.35;;;;;;;-149.78;100.00;50285.66;5127636;28;20046;-71
2022/05/27 05:03:12;;;;;;;14.57;2.78;;;;;;;-149.78;100.00;50307.16;5110406;28;20032;-70
2022/05/27 05:05:38;;;;;;;19.40;3.10;;;;;;;-149.78;100.00;50279.78;5095340;28;20036;-71
2022/05/27 05:08:33;;;;;;;13.68;2.60;;;;;;;-149.78;100.00;50271.97;5113426;28;20144;-70
2022/05/27 05:11:01;;;;;;;12.57;3.08;;;;;;;-149.78;100.00;50271.97;5108673;28;20051;-70
2022/05/27 05:13:29;;;;;;;19.10;3.35;;;;;;;-149.78;100.00;50299.34;5133826;28;20069;-70
2022/05/27 05:15:54;;;;;;;14.23;2.88;;;;;;;-149.78;100.00;50287.59;5107667;28;20036;-70
2022/05/27 05:18:20;;;;;;;13.65;2.38;;;;;;;-149.78;100.00;50275.88;5095097;28;20036;-71
2022/05/27 05:20:45;;;;;;;11.63;2.67;;;;;;;-149.78;100.00;50313.03;5132605;28;20454;-70
2022/05/27 05:23:11;;;;;;;14.75;3.60;;;;;;;-149.78;100.00;50279.78;5120760;28;20043;-71
2022/05/27 05:25:36;;;;;;;17.98;3.08;;;;;;;-149.78;100.00;50289.56;5094714;28;20166;-71
2022/05/27 05:28:02;;;;;;;14.65;2.95;;;;;;;-149.78;100.00;50275.88;5098343;28;20042;-71
2022/05/27 05:30:28;;;;;;;15.00;2.85;;;;;;;-149.78;100.00;50295.44;5086141;28;20448;-71
2022/05/27 05:32:54;;;;;;;11.68;3.00;;;;;;;-149.78;100.00;50309.13;5133706;28;20035;-70
2022/05/27 05:35:20;;;;;;;17.40;2.45;;;;;;;-149.78;100.00;50311.06;5115417;28;20039;-70
2022/05/27 05:37:46;;;;;;;14.93;2.78;;;;;;;-149.78;100.00;50283.69;5115347;28;20114;-70
2022/05/27 05:40:14;;;;;;;21.50;3.33;;;;;;;-149.78;100.00;50283.69;5115212;28;20039;-70
2022/05/27 05:42:41;;;;;;;19.10;2.80;;;;;;;-149.78;100.00;50299.34;5133721;28;20050;-70
2022/05/27 05:45:09;;;;;;;17.48;3.15;;;;;;;-149.78;100.00;50299.34;5134371;27;20375;-70
2022/05/27 05:47:35;;;;;;;15.48;2.58;;;;;;;-149.78;100.00;50303.25;5129328;27;20434;-70
2022/05/27 05:50:01;;;;;;;16.23;2.85;;;;;;;-149.78;100.00;50291.50;5081856;28;20119;-71
2022/05/27 05:52:27;;;;;;;13.10;3.33;;;;;;;-149.78;100.00;50268.03;5098843;28;20070;-71
2022/05/27 05:54:53;;;;;;;14.55;2.60;;;;;;;-149.78;100.00;50275.88;5085222;27;20471;-71
2022/05/27 05:57:18;;;;;;;16.88;3.08;;;;;;;-149.78;100.00;50240.66;5108957;27;20054;-70
2022/05/27 05:59:45;;;;;;;13.57;2.90;;;;;;;-149.78;100.00;50268.03;5118769;27;20058;-71
2022/05/27 06:02:10;;;;;;;10.90;2.70;;;;;;;-149.78;100.00;50256.31;5125121;27;20031;-70
2022/05/27 06:04:36;;;;;;;14.63;2.88;;;;;;;-149.78;100.00;50268.03;5129953;27;20054;-71
2022/05/27 06:07:03;;;;;;;14.90;2.83;;;;;;;-149.78;100.00;50260.22;5116542;27;20039;-70
2022/05/27 06:09:29;;;;;;;17.77;2.97;;;;;;;-149.78;100.00;50279.78;5133184;27;20507;-70
2022/05/27 06:12:00;;;;;;;14.63;2.42;;;;;;;-149.78;100.00;50264.13;5102675;27;20144;-71
2022/05/27 06:14:26;;;;;;;11.55;2.58;;;;;;;-149.78;100.00;50244.59;5102325;27;20439;-71
2022/05/27 06:16:52;;;;;;;16.52;3.88;;;;;;;-149.78;100.00;50252.41;5133708;27;20035;-71
2022/05/27 06:19:17;;;;;;;19.63;3.85;;;;;;;-149.78;100.00;50252.41;5131481;27;20035;-71
2022/05/27 06:21:43;;;;;;;12.50;3.03;;;;;;;-149.78;100.00;50254.34;5100006;27;20039;-72
2022/05/27 06:24:10;;;;;;;19.25;4.05;;;;;;;-149.78;100.00;50250.44;5106732;27;20060;-71
2022/05/27 06:26:38;;;;;;;15.02;2.92;;;;;;;-149.78;100.00;50268.03;5099945;28;20491;-71
2022/05/27 06:34:33;;;;;;;16.45;3.05;;;;;;;-149.78;100.00;50246.53;5128395;27;20035;-71
2022/05/27 06:37:10;;;;;;;13.55;2.70;;;;;;;-149.78;100.00;50240.66;5114932;27;20031;-71
2022/05/27 06:39:37;;;;;;;10.95;2.90;;;;;;;-149.78;100.00;50236.75;5108773;27;20027;-71
2022/05/27 06:42:07;;;;;;;12.55;2.80;;;;;;;-149.78;100.00;50232.84;5130355;27;20574;-71
2022/05/27 06:44:32;;;;;;;13.50;2.65;;;;;;;-149.78;100.00;50201.56;5133165;27;20114;-72
2022/05/27 06:46:58;;;;;;;17.15;3.10;;;;;;;-149.78;100.00;50189.81;5132850;27;20109;-71
2022/05/27 06:49:24;;;;;;;10.75;2.50;;;;;;;-149.78;100.00;50176.13;5109092;27;20035;-71
2022/05/27 06:51:50;;;;;;;11.63;2.50;;;;;;;-149.78;100.00;50135.06;5123608;27;20043;-71
2022/05/27 06:54:18;;;;;;;15.27;3.40;;;;;;;-149.78;100.00;50178.09;5130734;27;20023;-71
2022/05/27 06:56:45;;;;;;;12.52;2.72;;;;;;;-149.78;100.00;50189.81;5116039;27;20035;-70
2022/05/27 06:59:11;;;;;;;13.77;2.85;;;;;;;-149.78;100.00;50162.44;5107424;27;20038;-69
2022/05/27 07:01:37;;;;;;;14.43;3.50;;;;;;;-149.78;100.00;50142.88;5121994;27;20036;-71
2022/05/27 07:04:04;;;;;;;16.17;3.00;;;;;;;-149.78;100.00;50211.34;5095241;27;20047;-71
2022/05/27 07:06:38;;;;;;;9.35;2.50;;;;;;;-149.78;100.00;50131.16;5101020;27;20036;-70
2022/05/27 07:09:06;;;;;;;12.95;2.85;;;;;;;-149.78;100.00;50127.25;5125788;27;20500;-70
2022/05/27 07:11:33;;;;;;;11.25;2.42;;;;;;;-149.78;100.00;50115.50;5125590;27;20080;-70
2022/05/27 07:13:59;;;;;;;8.40;2.50;;;;;;;-149.78;100.00;50099.88;5123788;27;20027;-70
2022/05/27 07:16:27;;;;;;;8.93;2.40;;;;;;;-149.78;100.00;50088.13;5107470;27;20035;-71
2022/05/27 07:18:53;;;;;;;9.52;2.80;;;;;;;-149.78;100.00;50174.19;5106352;27;20027;-70
2022/05/27 07:21:19;;;;;;;9.85;2.35;;;;;;;-149.78;100.00;50150.72;5100583;27;20047;-70
2022/05/27 07:23:45;;;;;;;12.23;2.70;;;;;;;-149.78;100.00;50168.31;5123433;27;20035;-69
2022/05/27 07:26:11;;;;;;;7.38;2.42;;;;;;;-149.78;97.66;50109.66;5104777;27;20051;-69
2022/05/27 07:28:37;;;;;;;12.82;3.00;;;;;;;-149.78;92.68;50090.09;5109173;27;20024;-71
2022/05/27 07:31:03;;;;;;;10.60;2.60;;;;;;;-149.78;76.99;50060.75;5122740;27;20598;-70
2022/05/27 07:33:29;;;;;;;8.32;2.53;;;;;;;-149.78;69.58;50037.28;5121941;27;20114;-70
2022/05/27 07:35:55;;;;;;;8.93;2.75;;;;;;;-149.78;57.77;50043.16;5116167;27;20074;-72
2022/05/27 07:38:22;;;;;;;11.45;2.53;;;;;;;-149.78;58.02;50029.47;5124207;27;20103;-70
2022/05/27 07:40:48;;;;;;;9.88;2.58;;;;;;;-149.78;59.38;50045.09;5092683;27;20118;-71
2022/05/27 07:43:14;;;;;;;7.93;2.20;;;;;;;-149.78;52.45;49982.53;5117883;27;20042;-71
2022/05/27 07:45:42;;;;;;;8.27;2.58;;;;;;;-149.78;50.00;49955.16;5118233;27;20027;-70
2022/05/27 07:48:09;;;;;;;9.52;2.60;;;;;;;-149.78;52.00;50009.91;5122384;27;20319;-71
2022/05/27 07:50:35;;;;;;;15.20;2.85;;;;;;;-149.78;50.83;50037.28;5126030;27;20023;-71
2022/05/27 07:53:01;;;;;;;11.00;3.03;;;;;;;-149.78;60.16;50092.03;5122837;27;20031;-71
2022/05/27 07:55:28;;;;;;;11.32;2.70;;;;;;;-149.78;62.25;50111.59;5110510;27;20386;-70
2022/05/27 07:57:53;;;;;;;13.82;2.58;;;;;;;-149.78;70.32;50111.59;5124627;27;20031;-69
2022/05/27 08:00:23;;;;;;;8.07;2.50;;;;;;;-149.78;71.84;50103.78;5088146;28;20193;-67
2022/05/27 08:02:50;;;;;;;8.40;2.42;;;;;;;-149.78;76.30;50183.97;5119193;27;20027;-67
2022/05/27 08:05:19;;;;;;;20.25;2.95;;;;;;;-149.78;89.41;50158.53;5101585;27;20055;-67
2022/05/27 08:07:45;;;;;;;10.15;2.85;;;;;;;-149.78;97.16;50158.53;5105986;27;20122;-68
2022/05/27 08:10:13;;;;;;;12.57;3.33;;;;;;;-149.78;100.00;50160.50;5129209;27;20576;-70
2022/05/27 08:12:40;;;;;;;15.57;3.00;;;;;;;-149.78;100.00;50189.81;5121460;27;20110;-71
2022/05/27 08:15:08;;;;;;;10.15;2.40;;;;;;;-149.78;100.00;50158.53;5103862;27;20059;-69
2022/05/27 08:17:36;;;;;;;13.02;2.95;;;;;;;-149.78;100.00;50148.75;5121648;27;20035;-69
2022/05/27 08:20:03;;;;;;;6.78;2.10;;;;;;;-149.78;72.39;50121.38;5089556;27;20672;-69
2022/05/27 08:22:29;;;;;;;10.63;2.40;;;;;;;-149.78;70.56;50078.34;5120513;27;20034;-69
2022/05/27 08:24:56;;;;;;;7.82;3.08;;;;;;;-149.78;56.28;50111.59;5118467;27;20463;-69
2022/05/27 08:27:22;;;;;;;11.02;2.00;;;;;;;-149.78;72.13;50103.78;5119555;27;20371;-69
2022/05/27 08:29:49;;;;;;;10.82;2.75;;;;;;;-149.78;61.61;50084.22;5117939;27;20055;-69
2022/05/27 08:32:15;;;;;;;14.93;3.22;;;;;;;-149.78;58.01;50064.66;5084885;27;20749;-70
2022/05/27 08:40:44;;;;;;;9.80;2.35;;;;;;;-149.78;59.04;50109.66;5069018;28;20040;-69
2022/05/27 08:43:35;;;;;;;9.68;2.38;;;;;;;-149.78;60.35;50074.44;5080492;28;20043;-69
2022/05/27 08:46:29;;;;;;;11.23;2.67;;;;;;;-149.78;63.99;50072.50;5093404;28;20044;-69
2022/05/27 08:49:00;;;;;;;16.48;3.00;;;;;;;-149.78;66.39;50123.34;5119177;28;20095;-69
2022/05/27 08:51:32;;;;;;;13.57;2.83;;;;;;;-149.78;61.02;50060.75;5121569;28;20104;-69
2022/05/27 08:54:04;;;;;;;7.35;2.40;;;;;;;-149.78;51.70;50049.03;5122144;28;20149;-70
2022/05/27 08:59:42;;;;;;;8.23;2.38;;;;;;;-149.78;56.37;50095.94;5123674;28;20035;-69
2022/05/27 09:02:28;;;;;;;10.90;2.72;;;;;;;-149.78;59.28;50045.09;5127295;28;20106;-69
2022/05/27 09:05:14;;;;;;;15.55;3.03;;;;;;;-149.78;57.07;50099.88;5113668;28;20055;-69
2022/05/27 09:07:56;;;;;;;11.07;3.08;;;;;;;-149.78;58.22;50054.88;5094835;28;20155;-69
2022/05/27 09:10:30;;;;;;;10.23;2.70;;;;;;;-149.78;56.00;50045.09;5094128;28;20089;-68
2022/05/27 09:13:35;;;;;;;11.25;2.58;;;;;;;-149.78;49.43;50092.03;5115598;28;20035;-69
2022/05/27 09:16:17;;;;;;;10.98;3.10;;;;;;;-149.78;52.82;50080.31;5118117;28;20595;-69
2022/05/27 09:19:06;;;;;;;17.40;4.97;;;;;;;-149.78;56.14;50099.88;5117555;27;20490;-70
2022/05/27 09:22:08;;;;;;;13.13;3.22;;;;;;;-149.78;60.16;50115.50;5117882;27;20535;-70
2022/05/27 09:24:58;;;;;;;12.82;3.10;;;;;;;-149.78;61.46;50127.25;5124989;27;20037;-69
2022/05/27 09:27:29;;;;;;;13.77;3.00;;;;;;;-149.78;61.89;50142.88;5105658;27;20030;-69
2022/05/27 09:29:58;;;;;;;7.55;2.30;;;;;;;-149.78;57.08;50072.50;5108934;27;20489;-69
2022/05/27 09:32:44;;;;;;;8.60;2.05;;;;;;;-149.78;50.92;50033.38;5125840;27;20034;-70
2022/05/27 09:35:15;;;;;;;11.70;2.17;;;;;;;-149.78;47.02;50017.72;5099311;27;20038;-69
2022/05/27 09:37:45;;;;;;;10.80;2.63;;;;;;;-149.78;48.52;50074.44;5099374;28;20023;-70
2022/05/27 09:40:28;;;;;;;8.45;2.35;;;;;;;-149.78;54.13;50072.50;5097305;27;20102;-70
2022/05/27 09:43:15;;;;;;;7.57;2.47;;;;;;;-149.78;57.04;50127.25;5123473;27;20059;-69
2022/05/27 09:45:43;;;;;;;14.10;2.72;;;;;;;-149.78;63.90;50084.22;5118678;27;20028;-69
2022/05/27 09:48:10;;;;;;;10.85;2.55;;;;;;;-149.78;65.33;50160.50;5126641;27;20039;-69
2022/05/27 09:50:39;;;;;;;13.25;3.05;;;;;;;-149.78;67.11;50138.97;5126130;27;20035;-70
2022/05/27 09:53:07;;;;;;;13.05;3.03;;;;;;;-149.78;70.44;50138.97;5126992;27;20031;-71
2022/05/27 09:55:39;;;;;;;9.55;2.90;;;;;;;-149.78;68.82;50166.34;5111016;28;20467;-69
2022/05/27 09:58:07;;;;;;;13.45;2.60;;;;;;;-149.78;68.78;50178.09;5111481;27;20031;-69
2022/05/27 10:00:37;;;;;;;10.55;2.25;;;;;;;-149.78;67.97;50162.44;5122490;27;20032;-69
2022/05/27 10:03:23;;;;;;;9.65;2.25;;;;;;;-149.78;65.99;50144.84;5122138;27;20110;-70
2022/05/27 10:06:00;;;;;;;8.25;2.33;;;;;;;-149.78;67.13;50150.72;5104334;27;20110;-70
2022/05/27 10:08:36;;;;;;;14.07;2.20;;;;;;;-149.78;63.51;50162.44;5118011;27;20024;-70
2022/05/27 10:11:32;;;;;;;7.47;2.13;;;;;;;-149.78;63.96;50182.00;5106179;27;20075;-70
2022/05/27 10:14:22;;;;;;;13.02;3.00;;;;;;;-149.78;67.19;50131.16;5125356;27;20039;-70
2022/05/27 10:17:12;;;;;;;15.98;2.75;;;;;;;-149.78;66.51;50138.97;5111384;27;20038;-70
2022/05/27 10:19:44;;;;;;;7.10;1.90;;;;;;;-149.78;66.41;50158.53;5113814;27;20027;-70
2022/05/27 10:22:27;;;;;;;11.43;3.30;;;;;;;-149.78;63.57;50129.19;5102838;27;20023;-70
2022/05/27 10:25:11;;;;;;;15.07;2.70;;;;;;;-149.78;66.31;50121.38;5102636;28;20133;-70
2022/05/27 10:27:38;;;;;;;14.82;2.97;;;;;;;-149.78;65.51;50138.97;5119844;27;20419;-70
2022/05/27 10:30:22;;;;;;;7.07;2.03;;;;;;;-149.78;63.63;50148.75;5090136;28;20046;-70
2022/05/27 10:32:47;;;;;;;11.68;2.30;;;;;;;-149.78;67.64;50156.56;5122339;27;20023;-70
2022/05/27 10:35:16;;;;;;;7.80;2.03;;;;;;;-149.78;68.47;50150.72;5095676;27;20130;-70
2022/05/27 10:38:00;;;;;;;7.97;1.80;;;;;;;-149.78;62.40;50140.94;5097741;28;20030;-70
2022/05/27 10:40:44;;;;;;;11.20;2.00;;;;;;;-149.78;63.30;50148.75;5123876;27;20023;-71
2022/05/27 10:43:29;;;;;;;8.48;1.95;;;;;;;-149.78;64.35;50150.72;5120154;27;20034;-72
2022/05/27 10:45:56;;;;;;;9.90;1.92;;;;;;;-149.78;64.15;50154.63;5120942;27;20122;-70
2022/05/27 10:48:40;;;;;;;7.90;2.13;;;;;;;-149.78;61.96;50135.06;5126801;27;20023;-70
2022/05/27 10:51:32;;;;;;;12.63;2.10;;;;;;;-149.78;61.03;50144.84;5104878;27;20387;-70
2022/05/27 10:54:19;;;;;;;15.32;2.90;;;;;;;-149.78;60.42;50156.56;5131157;27;20040;-71
2022/05/27 11:03:17;;;;;;;8.82;2.38;;;;;;;-149.78;62.10;50131.16;5096511;28;20123;-72
2022/05/27 11:05:55;;;;;;;9.13;1.77;;;;;;;-149.78;65.29;50129.19;5129014;27;20030;-71
2022/05/27 11:08:21;;;;;;;8.07;2.40;;;;;;;-149.78;63.98;50123.34;5135839;27;20027;-71
2022/05/27 11:10:50;;;;;;;14.10;2.50;;;;;;;-149.78;59.72;50150.72;5135095;27;20054;-69
2022/05/27 11:16:46;;;;;;;9.77;2.50;;;;;;;-149.78;61.64;50133.09;5096215;28;20035;-70
2022/05/27 11:19:31;;;;;;;5.95;2.08;;;;;;;-149.78;63.72;50166.34;5096654;28;20088;-70
2022/05/27 11:22:00;;;;;;;10.98;2.05;;;;;;;-149.78;61.71;50142.88;5108817;27;20086;-71
2022/05/27 11:24:45;;;;;;;6.63;1.92;;;;;;;-149.78;64.12;50115.50;5116739;27;20035;-71
2022/05/27 11:27:26;;;;;;;8.70;2.42;;;;;;;-149.78;61.15;50123.34;5135460;27;20031;-73
2022/05/27 11:30:33;;;;;;;10.50;2.25;;;;;;;-149.78;62.55;50084.22;5113396;27;20579;-72
2022/05/27 11:33:19;;;;;;;7.60;2.28;;;;;;;-149.78;58.65;50121.38;5011552;28;20038;-72
2022/05/27 11:36:00;;;;;;;9.77;2.05;;;;;;;-149.78;58.58;50135.06;5118279;27;20042;-72
2022/05/27 11:38:26;;;;;;;6.82;2.30;;;;;;;-149.78;55.09;50127.25;5096542;28;20144;-75
2022/05/27 11:41:09;;;;;;;15.80;2.80;;;;;;;-149.78;56.53;50150.72;5096494;28;20060;-72
2022/05/27 11:44:02;;;;;;;10.50;2.28;;;;;;;-149.78;56.24;50125.28;5121784;27;20084;-72
2022/05/27 11:46:47;;;;;;;6.22;2.10;;;;;;;-149.78;60.44;50135.06;5118805;27;20379;-72
2022/05/27 11:49:39;;;;;;;8.15;2.03;;;;;;;-149.78;58.10;50142.88;5096070;28;20028;-73
2022/05/27 11:52:27;;;;;;;7.25;2.00;;;;;;;-149.78;58.39;50133.09;5114235;28;20035;-73
2022/05/27 11:55:30;;;;;;;7.30;1.90;;;;;;;-149.78;58.14;50150.72;5126867;27;20030;-74
2022/05/27 11:58:35;;;;;;;11.43;1.88;;;;;;;-149.78;59.55;50135.06;5134789;27;20023;-74
2022/05/27 12:01:09;;;;;;;8.55;2.28;;;;;;;-149.78;58.89;50131.16;5113827;27;20046;-74
2022/05/27 12:04:00;;;;;;;10.60;2.10;;;;;;;-149.78;55.65;50137.03;5115262;27;20046;-74